createdAt,value
2022-11-08T00:00:47.414Z,70.62
2022-11-08T00:03:16.312Z,70.50
2022-11-08T00:06:03.665Z,70.33
2022-11-08T00:08:51.315Z,70.44
2022-11-08T00:11:38.824Z,70.43
2022-11-08T00:14:07.742Z,70.48
2022-11-08T00:16:36.519Z,70.41
2022-11-08T00:19:05.271Z,70.29
2022-11-08T00:21:35.254Z,70.33
2022-11-08T00:24:04.209Z,70.27
2022-11-08T00:26:33.020Z,70.13
2022-11-08T00:29:02.265Z,69.97
2022-11-08T00:31:31.159Z,69.94
2022-11-08T00:33:59.944Z,70.15
2022-11-08T00:36:28.726Z,70.20
2022-11-08T00:38:57.536Z,70.17
2022-11-08T00:41:26.428Z,70.28
2022-11-08T00:43:55.241Z,70.37
2022-11-08T00:46:24.021Z,70.26
2022-11-08T00:48:52.820Z,70.11
2022-11-08T00:51:21.695Z,70.11
2022-11-08T00:53:50.697Z,70.16
2022-11-08T00:56:19.604Z,70.20
2022-11-08T00:58:48.385Z,70.13
2022-11-08T01:01:21.764Z,70.14
2022-11-08T01:03:51.261Z,70.11
2022-11-08T01:06:22.990Z,70.20
2022-11-08T01:08:52.519Z,70.23
2022-11-08T01:11:24.439Z,70.20
2022-11-08T01:13:57.690Z,70.13
2022-11-08T01:16:32.677Z,70.07
2022-11-08T01:19:02.489Z,70.20
2022-11-08T01:21:31.490Z,70.30
2022-11-08T01:24:00.683Z,70.31
2022-11-08T01:26:30.223Z,70.27
2022-11-08T01:28:59.402Z,70.18
2022-11-08T01:31:33.038Z,70.31
2022-11-08T01:34:01.848Z,70.49
2022-11-08T01:36:30.728Z,70.61
2022-11-08T01:38:59.567Z,70.82
2022-11-08T01:41:28.640Z,70.81
2022-11-08T01:43:59.995Z,70.89
2022-11-08T01:46:44.427Z,71.08
2022-11-08T01:49:39.101Z,71.26
2022-11-08T01:52:39.620Z,71.40
2022-11-08T01:55:30.576Z,71.39
2022-11-08T01:58:09.238Z,71.55
2022-11-08T02:00:39.698Z,71.70
2022-11-08T02:03:14.071Z,71.66
2022-11-08T02:05:46.535Z,71.73
2022-11-08T02:08:42.388Z,71.89
2022-11-08T02:11:16.229Z,71.90
2022-11-08T02:13:45.446Z,71.95
2022-11-08T02:16:16.665Z,71.78
2022-11-08T02:18:48.652Z,71.79
2022-11-08T02:21:48.889Z,71.60
2022-11-08T02:24:18.193Z,71.53
2022-11-08T02:26:50.237Z,71.64
2022-11-08T02:29:35.408Z,71.51
2022-11-08T02:32:06.516Z,71.58
2022-11-08T02:34:55.564Z,71.63
2022-11-08T02:37:27.297Z,71.60
2022-11-08T02:39:56.285Z,71.49
2022-11-08T02:42:25.559Z,71.33
2022-11-08T02:44:54.388Z,71.44
2022-11-08T02:47:25.635Z,71.52
2022-11-08T02:49:54.410Z,71.54
2022-11-08T02:52:23.279Z,71.59
2022-11-08T02:54:52.074Z,71.61
2022-11-08T02:57:20.838Z,71.64
2022-11-08T02:59:49.648Z,71.80
2022-11-08T03:02:18.758Z,71.89
2022-11-08T03:04:47.699Z,72.06
2022-11-08T03:07:20.772Z,72.13
2022-11-08T03:09:52.646Z,72.38
2022-11-08T03:12:21.546Z,72.48
2022-11-08T03:14:50.603Z,72.38
2022-11-08T03:17:19.487Z,72.33
2022-11-08T03:19:48.304Z,72.35
2022-11-08T03:22:17.197Z,72.33
2022-11-08T03:24:45.920Z,72.14
2022-11-08T03:27:15.456Z,72.10
2022-11-08T03:29:44.262Z,72.27
2022-11-08T03:32:14.412Z,72.28
2022-11-08T03:34:43.520Z,71.97
2022-11-08T03:37:12.339Z,71.92
2022-11-08T03:39:41.093Z,72.01
2022-11-08T03:42:10.438Z,72.14
2022-11-08T03:44:40.336Z,72.09
2022-11-08T03:47:09.667Z,72.01
2022-11-08T03:49:39.355Z,72.03
2022-11-08T03:52:08.250Z,72.21
2022-11-08T03:54:37.103Z,72.25
2022-11-08T03:57:06.729Z,72.31
2022-11-08T03:59:35.841Z,72.13
2022-11-08T04:02:04.824Z,71.99
2022-11-08T04:04:35.197Z,71.92
2022-11-08T04:07:03.974Z,71.95
2022-11-08T04:09:32.800Z,71.94
2022-11-08T04:12:20.358Z,71.96
2022-11-08T04:15:08.221Z,72.09
2022-11-08T04:17:55.531Z,72.03
2022-11-08T04:20:42.827Z,72.15
2022-11-08T04:23:12.054Z,72.17
2022-11-08T04:25:41.061Z,72.29
2022-11-08T04:28:10.201Z,72.36
2022-11-08T04:30:39.074Z,72.29
2022-11-08T04:33:07.866Z,72.27
2022-11-08T04:35:36.704Z,72.45
2022-11-08T04:38:05.523Z,72.50
2022-11-08T04:40:34.481Z,72.62
2022-11-08T04:43:03.335Z,72.69
2022-11-08T04:45:32.167Z,72.71
2022-11-08T04:48:01.104Z,72.74
2022-11-08T04:50:30.505Z,72.89
2022-11-08T04:52:59.499Z,72.98
2022-11-08T04:55:28.431Z,72.98
2022-11-08T04:57:59.259Z,72.91
2022-11-08T05:00:28.216Z,72.85
2022-11-08T05:02:56.994Z,72.83
2022-11-08T05:05:25.818Z,72.70
2022-11-08T05:07:55.309Z,72.68
2022-11-08T05:10:24.102Z,72.74
2022-11-08T05:12:57.132Z,72.68
2022-11-08T05:15:26.174Z,72.74
2022-11-08T05:17:55.195Z,72.63
2022-11-08T05:20:42.695Z,72.64
2022-11-08T05:23:26.734Z,72.74
2022-11-08T05:25:57.816Z,72.97
2022-11-08T05:28:26.664Z,73.13
2022-11-08T05:30:56.642Z,73.11
2022-11-08T05:33:26.262Z,73.05
2022-11-08T05:35:55.144Z,73.02
2022-11-08T05:38:24.077Z,72.94
2022-11-08T05:40:53.002Z,73.11
2022-11-08T05:43:21.824Z,73.07
2022-11-08T05:45:50.631Z,72.91
2022-11-08T05:48:19.600Z,72.79
2022-11-08T05:50:49.293Z,72.70
2022-11-08T05:53:18.621Z,72.63
2022-11-08T05:55:49.087Z,72.63
2022-11-08T05:58:17.965Z,72.72
2022-11-08T06:00:46.766Z,72.85
2022-11-08T06:03:19.705Z,73.06
2022-11-08T06:05:51.435Z,73.18
2022-11-08T06:08:20.432Z,72.99
2022-11-08T06:10:49.313Z,72.87
2022-11-08T06:13:18.083Z,72.94
2022-11-08T06:15:46.893Z,72.97
2022-11-08T06:18:15.734Z,73.06
2022-11-08T06:20:44.620Z,73.06
2022-11-08T06:23:13.373Z,73.37
2022-11-08T06:25:47.301Z,73.54
2022-11-08T06:28:16.403Z,73.66
2022-11-08T06:30:45.332Z,73.59
2022-11-08T06:33:14.231Z,73.69
2022-11-08T06:35:45.288Z,73.77
2022-11-08T06:38:14.139Z,73.96
2022-11-08T06:40:43.148Z,74.15
2022-11-08T06:43:17.973Z,74.02
2022-11-08T06:50:58.255Z,74.20
2022-11-08T06:53:27.130Z,74.33
2022-11-08T06:55:55.953Z,74.43
2022-11-08T06:58:24.829Z,74.33
2022-11-08T07:00:53.646Z,74.28
2022-11-08T07:03:22.686Z,74.30
2022-11-08T07:05:51.512Z,74.29
2022-11-08T07:08:23.757Z,74.26
2022-11-08T07:10:54.070Z,74.04
2022-11-08T07:13:23.155Z,74.03
2022-11-08T07:15:51.958Z,73.94
2022-11-08T07:18:20.891Z,74.19
2022-11-08T07:20:49.939Z,74.21
2022-11-08T07:23:20.090Z,74.12
2022-11-08T07:25:49.222Z,74.15
2022-11-08T07:28:19.690Z,74.14
2022-11-08T07:30:49.818Z,74.19
2022-11-08T07:33:19.064Z,74.26
2022-11-08T07:35:48.109Z,74.31
2022-11-08T07:38:16.917Z,74.53
2022-11-08T07:40:45.802Z,74.48
2022-11-08T07:43:16.697Z,74.47
2022-11-08T07:45:45.940Z,74.26
2022-11-08T07:48:14.876Z,74.13
2022-11-08T07:50:43.933Z,74.05
2022-11-08T07:53:12.986Z,73.91
2022-11-08T07:55:42.388Z,73.51
2022-11-08T07:58:12.026Z,73.43
2022-11-08T08:00:43.331Z,73.46
2022-11-08T08:03:14.783Z,73.49
2022-11-08T08:05:45.830Z,73.21
2022-11-08T08:08:14.724Z,73.02
2022-11-08T08:10:45.894Z,72.93
2022-11-08T08:13:15.994Z,72.66
2022-11-08T08:15:45.212Z,72.41
2022-11-08T08:18:14.181Z,72.05
2022-11-08T08:20:43.331Z,71.85
2022-11-08T08:23:12.240Z,71.78
2022-11-08T08:25:41.300Z,71.84
2022-11-08T08:28:11.404Z,71.38
2022-11-08T08:30:41.139Z,70.77
2022-11-08T08:33:32.444Z,70.56
2022-11-08T08:36:02.146Z,70.72
2022-11-08T08:38:33.461Z,70.44
2022-11-08T08:41:03.748Z,69.77
2022-11-08T08:43:32.816Z,69.18
2022-11-08T08:46:05.077Z,68.67
2022-11-08T08:48:36.647Z,68.47
2022-11-08T08:51:07.459Z,68.43
2022-11-08T08:53:40.176Z,68.30
2022-11-08T08:56:10.754Z,67.99
2022-11-08T08:58:40.502Z,67.92
2022-11-08T09:04:04.896Z,67.16
2022-11-08T09:06:34.655Z,66.77
2022-11-08T09:09:04.718Z,66.89
2022-11-08T09:11:34.151Z,66.78
2022-11-08T09:14:05.982Z,66.53
2022-11-08T09:16:36.489Z,66.65
2022-11-08T09:19:05.841Z,66.22
2022-11-08T09:21:35.046Z,66.28
2022-11-08T09:24:04.330Z,66.41
2022-11-08T09:26:33.587Z,66.63
2022-11-08T09:29:02.739Z,66.55
2022-11-08T09:31:32.154Z,66.28
2022-11-08T09:36:34.345Z,65.55
2022-11-08T09:39:04.299Z,64.98
2022-11-08T09:42:10.336Z,64.97
2022-11-08T09:45:20.965Z,64.63
2022-11-08T09:48:00.168Z,64.20
2022-11-08T09:50:47.723Z,64.19
2022-11-08T09:53:31.774Z,64.05
2022-11-08T09:56:16.113Z,63.22
2022-11-08T09:59:02.385Z,63.03
2022-11-08T10:01:35.490Z,62.21
2022-11-08T10:04:22.389Z,61.67
2022-11-08T10:07:41.540Z,60.47
2022-11-08T10:10:38.280Z,61.12
2022-11-08T10:13:21.111Z,60.56
2022-11-08T10:16:05.461Z,60.63
2022-11-08T10:19:01.222Z,60.84
2022-11-08T10:21:49.396Z,59.92
2022-11-08T10:24:27.610Z,59.06
2022-11-08T10:26:59.407Z,58.93
2022-11-08T10:29:44.186Z,58.96
2022-11-08T10:32:21.700Z,58.47
2022-11-08T10:35:32.510Z,57.96
2022-11-08T10:38:03.421Z,59.12
2022-11-08T10:40:47.542Z,58.49
2022-11-08T10:43:29.215Z,58.27
2022-11-08T10:45:58.049Z,56.37
2022-11-08T10:48:28.517Z,54.58
2022-11-08T10:50:57.400Z,54.46
2022-11-08T10:53:29.498Z,54.53
2022-11-08T10:56:06.344Z,54.74
2022-11-08T10:58:44.059Z,53.73
2022-11-08T11:01:24.469Z,53.35
2022-11-08T11:03:53.814Z,53.43
2022-11-08T11:06:32.821Z,53.30
2022-11-08T11:09:19.294Z,53.33
2022-11-08T11:11:59.038Z,53.67
2022-11-08T11:14:27.879Z,54.03
2022-11-08T11:17:16.879Z,53.82
2022-11-08T11:19:57.556Z,53.50
2022-11-08T11:22:35.567Z,53.74
2022-11-08T11:25:18.204Z,54.16
2022-11-08T11:27:58.876Z,54.60
2022-11-08T11:30:31.257Z,54.93
2022-11-08T11:33:24.161Z,55.15
2022-11-08T11:36:14.564Z,55.44
2022-11-08T11:39:05.185Z,55.80
2022-11-08T11:41:57.801Z,56.04
2022-11-08T11:44:41.793Z,55.90
2022-11-08T11:47:24.883Z,56.02
2022-11-08T11:49:59.245Z,56.15
2022-11-08T11:52:28.051Z,56.28
2022-11-08T11:54:57.171Z,56.43
2022-11-08T11:57:53.507Z,56.29
2022-11-08T12:00:22.570Z,56.48
2022-11-08T12:03:21.814Z,56.46
2022-11-08T12:06:29.383Z,56.38
2022-11-08T12:09:35.470Z,56.70
2022-11-08T12:12:41.975Z,56.75
2022-11-08T12:15:23.998Z,56.98
2022-11-08T12:18:37.002Z,57.19
2022-11-08T12:21:15.263Z,57.28
2022-11-08T12:24:37.863Z,57.35
2022-11-08T12:27:15.604Z,57.48
2022-11-08T12:30:15.897Z,57.73
2022-11-08T12:33:12.286Z,57.94
2022-11-08T12:36:16.527Z,58.09
2022-11-08T12:38:54.553Z,58.09
2022-11-08T12:42:34.803Z,58.02
2022-11-08T12:45:57.730Z,58.09
2022-11-08T12:48:52.663Z,58.30
2022-11-08T12:52:01.742Z,58.26
2022-11-08T12:54:44.199Z,58.21
2022-11-08T12:57:17.756Z,58.20
2022-11-08T13:00:08.746Z,58.03
2022-11-08T13:02:39.756Z,58.20
2022-11-08T13:05:14.432Z,58.23
2022-11-08T13:08:04.813Z,58.31
2022-11-08T13:10:58.747Z,58.23
2022-11-08T13:13:46.115Z,58.20
2022-11-08T13:16:24.934Z,58.29
2022-11-08T13:18:55.891Z,58.36
2022-11-08T13:21:27.807Z,58.31
2022-11-08T13:24:09.847Z,58.30
2022-11-08T13:26:53.748Z,58.30
2022-11-08T13:29:27.575Z,58.28
2022-11-08T13:32:25.230Z,58.22
2022-11-08T13:35:09.337Z,58.23
2022-11-08T13:38:05.991Z,58.20
2022-11-08T13:40:44.753Z,58.38
2022-11-08T13:43:26.215Z,58.44
2022-11-08T13:45:56.056Z,58.48
2022-11-08T13:48:25.281Z,58.54
2022-11-08T13:51:31.212Z,58.60
2022-11-08T13:54:02.777Z,58.73
2022-11-08T13:56:48.201Z,58.72
2022-11-08T13:59:32.219Z,58.88
2022-11-08T14:02:21.393Z,58.89
2022-11-08T14:04:50.367Z,59.07
2022-11-08T14:07:46.615Z,59.09
2022-11-08T14:10:35.637Z,59.21
2022-11-08T14:13:21.148Z,59.24
2022-11-08T14:16:03.899Z,59.16
2022-11-08T14:18:35.848Z,59.25
2022-11-08T14:21:05.716Z,59.35
2022-11-08T14:23:39.956Z,59.30
2022-11-08T14:26:23.704Z,59.42
2022-11-08T14:28:53.878Z,59.52
2022-11-08T14:31:31.399Z,59.61
2022-11-08T14:34:02.009Z,59.67
2022-11-08T14:36:32.539Z,59.65
2022-11-08T14:39:19.176Z,59.72
2022-11-08T14:41:53.815Z,59.80
2022-11-08T14:44:23.718Z,59.84
2022-11-08T14:46:53.389Z,59.91
2022-11-08T14:49:36.639Z,60.00
2022-11-08T14:52:19.595Z,60.16
2022-11-08T14:54:58.464Z,60.30
2022-11-08T14:57:30.668Z,60.32
2022-11-08T15:00:05.667Z,60.29
2022-11-08T15:02:34.845Z,60.35
2022-11-08T15:05:05.740Z,60.50
2022-11-08T15:07:34.608Z,60.66
2022-11-08T15:10:09.849Z,60.83
2022-11-08T15:12:43.303Z,61.00
2022-11-08T15:15:32.592Z,61.10
2022-11-08T15:18:26.410Z,61.23
2022-11-08T15:21:16.218Z,61.46
2022-11-08T15:23:53.812Z,61.59
2022-11-08T15:26:23.890Z,61.71
2022-11-08T15:29:19.551Z,61.74
2022-11-08T15:32:04.569Z,62.05
2022-11-08T15:34:41.315Z,62.25
2022-11-08T15:37:21.563Z,62.60
2022-11-08T15:39:51.340Z,62.83
2022-11-08T15:42:21.399Z,62.98
2022-11-08T15:45:23.321Z,63.14
2022-11-08T15:47:54.319Z,63.32
2022-11-08T15:50:30.612Z,63.44
2022-11-08T15:53:03.661Z,63.62
2022-11-08T15:55:39.484Z,63.79
2022-11-08T15:58:40.216Z,63.81
2022-11-08T16:01:20.183Z,63.98
2022-11-08T16:03:49.203Z,64.20
2022-11-08T16:06:18.406Z,64.20
2022-11-08T16:08:47.329Z,64.22
2022-11-08T16:11:23.435Z,64.37
2022-11-08T16:13:52.328Z,64.49
2022-11-08T16:16:21.348Z,64.70
2022-11-08T16:18:50.358Z,64.78
2022-11-08T16:21:19.185Z,64.76
2022-11-08T16:23:47.956Z,64.84
2022-11-08T16:26:20.512Z,64.87
2022-11-08T16:28:49.361Z,64.77
2022-11-08T16:31:18.604Z,64.85
2022-11-08T16:33:47.695Z,64.93
2022-11-08T16:36:23.448Z,65.05
2022-11-08T16:38:57.874Z,65.01
2022-11-08T16:41:26.797Z,65.04
2022-11-08T16:43:56.544Z,65.22
2022-11-08T16:46:25.515Z,65.49
2022-11-08T16:49:00.176Z,65.67
2022-11-08T16:51:30.644Z,65.76
2022-11-08T16:54:02.808Z,65.84
2022-11-08T16:56:31.633Z,65.96
2022-11-08T16:59:00.547Z,66.05
2022-11-08T17:01:33.374Z,66.10
2022-11-08T17:04:02.466Z,66.23
2022-11-08T17:06:31.302Z,66.35
2022-11-08T17:09:00.083Z,66.38
2022-11-08T17:11:28.887Z,66.51
2022-11-08T17:13:59.086Z,66.68
2022-11-08T17:16:27.900Z,66.82
2022-11-08T17:18:57.894Z,67.00
2022-11-08T17:24:21.235Z,67.21
2022-11-08T17:26:50.836Z,67.28
2022-11-08T17:29:20.049Z,67.39
2022-11-08T17:31:49.738Z,67.48
2022-11-08T17:34:18.677Z,67.54
2022-11-08T17:36:47.759Z,67.52
2022-11-08T17:39:16.780Z,67.65
2022-11-08T17:41:45.690Z,67.81
2022-11-08T17:44:14.739Z,67.82
2022-11-08T17:46:43.809Z,67.86
2022-11-08T17:49:12.692Z,67.93
2022-11-08T17:51:41.820Z,68.00
2022-11-08T17:54:10.637Z,67.97
2022-11-08T17:56:39.801Z,67.91
2022-11-08T17:59:08.625Z,67.98
2022-11-08T18:01:37.948Z,68.11
2022-11-08T18:04:07.194Z,68.20
2022-11-08T18:06:36.302Z,68.33
2022-11-08T18:09:07.394Z,68.38
2022-11-08T18:11:36.775Z,68.30
2022-11-08T18:14:05.692Z,68.38
2022-11-08T18:16:34.601Z,68.35
2022-11-08T18:19:03.396Z,68.33
2022-11-08T18:21:32.967Z,68.34
2022-11-08T18:24:01.918Z,68.36
2022-11-08T18:26:30.887Z,68.55
2022-11-08T18:29:02.356Z,68.40
2022-11-08T18:31:34.754Z,68.49
2022-11-08T18:34:03.747Z,68.50
2022-11-08T18:36:32.697Z,68.58
2022-11-08T18:39:02.741Z,68.60
2022-11-08T18:41:34.089Z,68.66
2022-11-08T18:44:03.208Z,68.71
2022-11-08T18:46:41.789Z,68.73
2022-11-08T18:49:11.544Z,68.84
2022-11-08T18:51:46.683Z,68.88
2022-11-08T18:54:50.556Z,68.97
2022-11-08T18:57:20.702Z,69.18
2022-11-08T18:59:50.162Z,69.19
2022-11-08T19:02:23.492Z,69.38
2022-11-08T19:04:54.003Z,69.39
2022-11-08T19:07:27.879Z,69.31
2022-11-08T19:09:57.042Z,69.43
2022-11-08T19:12:32.749Z,69.43
2022-11-08T19:15:05.704Z,69.39
2022-11-08T19:17:36.457Z,69.39
2022-11-08T19:20:06.284Z,69.34
2022-11-08T19:22:35.926Z,69.13
2022-11-08T19:25:06.461Z,69.26
2022-11-08T19:27:35.500Z,69.20
2022-11-08T19:30:05.306Z,69.25
2022-11-08T19:32:34.463Z,69.21
2022-11-08T19:35:03.469Z,69.33
2022-11-08T19:37:33.708Z,69.35
2022-11-08T19:40:04.484Z,69.30
2022-11-08T19:42:34.611Z,69.38
2022-11-08T19:45:03.678Z,69.41
2022-11-08T19:47:33.968Z,69.52
2022-11-08T19:50:02.999Z,69.53
2022-11-08T19:52:33.361Z,69.42
2022-11-08T19:55:02.424Z,69.43
2022-11-08T19:57:32.614Z,69.40
2022-11-08T20:00:02.022Z,69.49
2022-11-08T20:02:42.497Z,69.66
2022-11-08T20:05:11.580Z,69.69
2022-11-08T20:07:40.532Z,69.63
2022-11-08T20:10:09.900Z,69.56
2022-11-08T20:12:38.922Z,69.68
2022-11-08T20:15:08.220Z,69.70
2022-11-08T20:17:37.115Z,69.71
2022-11-08T20:20:06.506Z,69.83
2022-11-08T20:22:35.364Z,69.95
2022-11-08T20:25:05.123Z,69.93
2022-11-08T20:27:34.293Z,70.02
2022-11-08T20:30:03.972Z,70.14
2022-11-08T20:32:33.963Z,70.21
2022-11-08T20:35:04.208Z,70.24
2022-11-08T20:37:33.467Z,70.28
2022-11-08T20:40:02.532Z,70.45
2022-11-08T20:42:31.391Z,70.44
2022-11-08T20:45:00.281Z,70.44
2022-11-08T20:47:31.932Z,70.46
2022-11-08T20:50:05.254Z,70.60
2022-11-08T20:52:34.439Z,70.40
2022-11-08T20:55:05.346Z,70.54
2022-11-08T20:57:36.307Z,70.47
2022-11-08T21:00:13.049Z,70.56
2022-11-08T21:02:42.944Z,70.51
2022-11-08T21:05:11.918Z,70.53
2022-11-08T21:08:01.767Z,70.44
2022-11-08T21:10:43.054Z,70.59
2022-11-08T21:13:12.946Z,70.68
2022-11-08T21:15:47.391Z,70.67
2022-11-08T21:18:20.527Z,70.71
2022-11-08T21:20:51.590Z,70.56
2022-11-08T21:23:20.590Z,70.56
2022-11-08T21:25:51.503Z,70.56
2022-11-08T21:28:20.643Z,70.48
2022-11-08T21:30:50.000Z,70.49
2022-11-08T21:33:19.490Z,70.59
2022-11-08T21:35:54.101Z,70.74
2022-11-08T21:38:24.375Z,70.80
2022-11-08T21:40:55.006Z,70.85
2022-11-08T21:43:24.320Z,70.97
2022-11-08T21:45:53.531Z,71.11
2022-11-08T21:48:23.518Z,71.14
2022-11-08T21:50:52.551Z,71.22
2022-11-08T21:53:21.566Z,71.38
2022-11-08T21:55:58.121Z,71.45
2022-11-08T21:58:27.113Z,71.56
2022-11-08T22:00:56.147Z,71.48
2022-11-08T22:03:25.153Z,71.50
2022-11-08T22:05:54.161Z,71.55
2022-11-08T22:08:23.086Z,71.60
2022-11-08T22:10:52.105Z,71.80
2022-11-08T22:13:21.100Z,71.92
2022-11-08T22:15:50.075Z,71.99
2022-11-08T22:18:26.392Z,72.03
2022-11-08T22:21:26.601Z,72.14
2022-11-08T22:23:56.699Z,72.28
2022-11-08T22:26:25.817Z,72.26
2022-11-08T22:28:57.696Z,72.34
2022-11-08T22:31:27.267Z,72.81
2022-11-08T22:33:56.207Z,72.82
2022-11-08T22:36:25.678Z,72.88
2022-11-08T22:38:55.315Z,72.81
2022-11-08T22:41:25.284Z,72.85
2022-11-08T22:43:54.509Z,72.90
2022-11-08T22:46:23.509Z,72.92
2022-11-08T22:48:52.442Z,72.99
2022-11-08T22:51:21.502Z,73.13
2022-11-08T22:53:50.389Z,73.13
2022-11-08T22:56:19.365Z,73.00
2022-11-08T22:58:48.378Z,73.06
2022-11-08T23:01:17.412Z,73.05
2022-11-08T23:03:48.027Z,73.02
2022-11-08T23:06:17.674Z,73.08
2022-11-08T23:08:47.911Z,73.07
2022-11-08T23:11:35.781Z,73.02
2022-11-08T23:14:23.896Z,73.06
2022-11-08T23:16:52.799Z,73.07
2022-11-08T23:19:42.945Z,73.13
2022-11-08T23:22:34.993Z,73.27
2022-11-08T23:25:05.319Z,73.27
2022-11-08T23:27:55.775Z,73.35
2022-11-08T23:30:43.205Z,73.46
2022-11-08T23:33:12.205Z,73.47
2022-11-08T23:36:01.054Z,73.42
2022-11-08T23:38:30.113Z,73.38
2022-11-08T23:41:18.289Z,73.40
2022-11-08T23:44:05.769Z,73.52
2022-11-08T23:46:34.668Z,73.58
2022-11-08T23:49:04.311Z,73.60
2022-11-08T23:51:33.622Z,73.68
2022-11-08T23:54:02.537Z,73.68
2022-11-08T23:56:31.473Z,73.68
2022-11-08T23:59:01.180Z,73.74
